Time;durP1;ratioP1;P1;durP2;ratioP2;P2;SDS_P1;SDS_P2;PMS_P1;PMS_P2;Temp;Humidity;BMP_temperature;BMP_pressure;BME280_temperature;BME280_humidity;BME280_pressure;Samples;Min_cycle;Max_cycle;Signal;HPM_P1;HPM_P2
2023/12/08 00:01:14;;;;;;;;;;;;;;;10.73;100.00;99670.84;7314864;19;20904;-65
2023/12/08 00:03:42;;;;;;;;;;;;;;;10.82;100.00;99675.00;7312176;19;19933;-64
2023/12/08 00:06:09;;;;;;;;;;;;;;;10.86;100.00;99675.47;7325030;19;20747;-66
2023/12/08 00:08:37;;;;;;;;;;;;;;;10.83;100.00;99660.84;7325059;19;19923;-65
2023/12/08 00:11:05;;;;;;;;;;;;;;;10.84;100.00;99656.41;7326457;19;21415;-66
2023/12/08 00:13:32;;;;;;;;;;;;;;;10.87;100.00;99670.00;7320381;19;20786;-65
2023/12/08 00:15:59;;;;;;;;;;;;;;;10.87;100.00;99667.38;7317947;19;19933;-66
2023/12/08 00:18:25;;;;;;;;;;;;;;;10.88;100.00;99666.38;7311135;19;19925;-65
2023/12/08 00:20:53;;;;;;;;;;;;;;;10.88;100.00;99668.19;7304032;19;19923;-65
2023/12/08 00:23:20;;;;;;;;;;;;;;;10.92;100.00;99664.22;7315114;19;20014;-65
2023/12/08 00:25:47;;;;;;;;;;;;;;;10.94;100.00;99662.22;7322786;19;19919;-64
2023/12/08 00:28:14;;;;;;;;;;;;;;;10.96;100.00;99663.69;7303884;19;20340;-65
2023/12/08 00:30:41;;;;;;;;;;;;;;;10.96;100.00;99665.50;7304678;19;19934;-65
2023/12/08 00:33:08;;;;;;;;;;;;;;;10.88;100.00;99658.50;7319536;19;19972;-66
2023/12/08 00:35:35;;;;;;;;;;;;;;;10.86;100.00;99662.31;7306818;19;19914;-65
2023/12/08 00:38:02;;;;;;;;;;;;;;;10.84;100.00;99670.38;7315429;19;20316;-63
2023/12/08 00:40:29;;;;;;;;;;;;;;;10.82;100.00;99667.13;7306755;19;19922;-65
2023/12/08 00:42:57;;;;;;;;;;;;;;;10.85;100.00;99669.41;7310758;19;21083;-64
2023/12/08 00:45:24;;;;;;;;;;;;;;;10.84;100.00;99664.31;7326994;19;19932;-67
2023/12/08 00:47:57;;;;;;;;;;;;;;;10.82;100.00;99679.47;7319376;19;19919;-64
2023/12/08 00:50:24;;;;;;;;;;;;;;;10.80;100.00;99687.56;7314525;19;20030;-64
2023/12/08 00:52:51;;;;;;;;;;;;;;;10.77;100.00;99690.53;7304974;19;19930;-65
2023/12/08 00:55:18;;;;;;;;;;;;;;;10.77;100.00;99698.41;7313814;19;19944;-64
2023/12/08 00:57:45;;;;;;;;;;;;;;;10.78;100.00;99705.31;7291687;19;19924;-65
2023/12/08 01:00:12;;;;;;;;;;;;;;;10.80;100.00;99705.97;7320117;19;19922;-65
2023/12/08 01:02:39;;;;;;;;;;;;;;;10.77;100.00;99701.06;7301726;19;20027;-65
2023/12/08 01:05:06;;;;;;;;;;;;;;;10.76;100.00;99714.41;7312911;19;20608;-65
2023/12/08 01:07:40;;;;;;;;;;;;;;;10.75;100.00;99718.03;7287027;19;20283;-64
2023/12/08 01:10:07;;;;;;;;;;;;;;;10.71;100.00;99721.03;7303449;19;19986;-65
2023/12/08 01:12:34;;;;;;;;;;;;;;;10.69;100.00;99732.72;7297857;19;20027;-65
2023/12/08 01:15:01;;;;;;;;;;;;;;;10.69;100.00;99733.53;7302339;19;20489;-64
2023/12/08 01:17:28;;;;;;;;;;;;;;;10.68;100.00;99731.91;7317240;19;19945;-65
2023/12/08 01:19:55;;;;;;;;;;;;;;;10.69;100.00;99737.97;7320895;19;19955;-65
2023/12/08 01:22:27;;;;;;;;;;;;;;;10.70;100.00;99750.16;7313962;19;20263;-65
2023/12/08 01:24:54;;;;;;;;;;;;;;;10.71;100.00;99747.34;7322717;19;21212;-65
2023/12/08 01:27:21;;;;;;;;;;;;;;;10.71;100.00;99739.47;7313769;19;19925;-65
2023/12/08 01:29:50;;;;;;;;;;;;;;;10.74;100.00;99743.53;7313507;19;19927;-65
2023/12/08 01:32:17;;;;;;;;;;;;;;;10.77;100.00;99753.66;7311299;19;19914;-65
2023/12/08 01:34:44;;;;;;;;;;;;;;;10.75;100.00;99749.59;7300700;19;19986;-64
2023/12/08 01:37:11;;;;;;;;;;;;;;;10.78;100.00;99754.50;7313313;19;20019;-64
2023/12/08 01:39:37;;;;;;;;;;;;;;;10.77;100.00;99751.03;7307048;19;19918;-64
2023/12/08 01:42:04;;;;;;;;;;;;;;;10.75;100.00;99755.69;7318517;19;20385;-64
2023/12/08 01:44:31;;;;;;;;;;;;;;;10.72;100.00;99764.75;7314423;19;19922;-66
2023/12/08 01:46:58;;;;;;;;;;;;;;;10.70;100.00;99763.31;7309048;19;19919;-63
2023/12/08 01:49:25;;;;;;;;;;;;;;;10.63;100.00;99771.09;7305887;19;19938;-65
2023/12/08 01:51:52;;;;;;;;;;;;;;;10.63;100.00;99762.38;7311506;19;20244;-64
2023/12/08 01:54:19;;;;;;;;;;;;;;;10.62;100.00;99764.19;7306424;19;20206;-66
2023/12/08 01:56:49;;;;;;;;;;;;;;;10.63;100.00;99767.63;7310159;19;20007;-65
2023/12/08 01:59:16;;;;;;;;;;;;;;;10.60;100.00;99776.72;7319450;19;19926;-66
2023/12/08 02:01:43;;;;;;;;;;;;;;;10.57;100.00;99771.78;7325385;19;19929;-65
2023/12/08 02:04:10;;;;;;;;;;;;;;;10.59;100.00;99771.63;7321774;19;19925;-64
2023/12/08 02:06:37;;;;;;;;;;;;;;;10.59;100.00;99772.44;7314829;19;19919;-65
2023/12/08 02:09:03;;;;;;;;;;;;;;;10.60;100.00;99781.16;7318703;19;19926;-64
2023/12/08 02:11:30;;;;;;;;;;;;;;;10.58;100.00;99777.88;7308807;19;20280;-65
2023/12/08 02:13:57;;;;;;;;;;;;;;;10.59;100.00;99784.78;7319325;19;19927;-65
2023/12/08 02:16:28;;;;;;;;;;;;;;;10.58;100.00;99786.59;7326001;19;21024;-66
2023/12/08 02:18:55;;;;;;;;;;;;;;;10.58;100.00;99781.31;7328533;19;20340;-64
2023/12/08 02:21:22;;;;;;;;;;;;;;;10.58;100.00;99786.59;7323914;19;20118;-65
2023/12/08 02:23:49;;;;;;;;;;;;;;;10.55;100.00;99778.25;7318505;19;19923;-65
2023/12/08 02:26:18;;;;;;;;;;;;;;;10.52;100.00;99787.28;7319557;19;19930;-65
2023/12/08 02:28:45;;;;;;;;;;;;;;;10.53;100.00;99786.31;7312757;19;19918;-65
2023/12/08 02:31:15;;;;;;;;;;;;;;;10.52;100.00;99782.03;7319866;19;19915;-65
2023/12/08 02:33:46;;;;;;;;;;;;;;;10.52;100.00;99783.84;7322206;19;20421;-64
2023/12/08 02:36:16;;;;;;;;;;;;;;;10.50;100.00;99789.31;7311413;19;20166;-65
2023/12/08 02:38:43;;;;;;;;;;;;;;;10.47;100.00;99800.16;7322751;19;22213;-65
2023/12/08 02:41:10;;;;;;;;;;;;;;;10.42;100.00;99794.63;7314738;19;19927;-64
2023/12/08 02:43:37;;;;;;;;;;;;;;;10.43;100.00;99791.00;7321676;19;19965;-64
2023/12/08 02:46:04;;;;;;;;;;;;;;;10.45;100.00;99790.84;7308550;19;19919;-64
2023/12/08 02:48:31;;;;;;;;;;;;;;;10.42;100.00;99801.69;7299841;19;19914;-65
2023/12/08 02:50:58;;;;;;;;;;;;;;;10.43;100.00;99796.25;7321574;19;20259;-66
2023/12/08 02:53:25;;;;;;;;;;;;;;;10.42;100.00;99802.50;7309255;19;19936;-64
2023/12/08 02:55:52;;;;;;;;;;;;;;;10.41;100.00;99803.53;7317099;19;19982;-64
2023/12/08 02:58:18;;;;;;;;;;;;;;;10.42;100.00;99815.66;7313896;19;20009;-64
2023/12/08 03:00:45;;;;;;;;;;;;;;;10.39;100.00;99816.03;7323398;19;20542;-65
2023/12/08 03:03:12;;;;;;;;;;;;;;;10.38;100.00;99817.00;7310648;19;19960;-66
2023/12/08 03:05:39;;;;;;;;;;;;;;;10.40;100.00;99819.47;7313364;19;20006;-65
2023/12/08 03:08:06;;;;;;;;;;;;;;;10.36;100.00;99808.50;7314649;19;19907;-64
2023/12/08 03:10:33;;;;;;;;;;;;;;;10.36;100.00;99811.13;7318386;19;19922;-65
2023/12/08 03:13:01;;;;;;;;;;;;;;;10.37;100.00;99809.28;7312988;19;19914;-64
2023/12/08 03:15:27;;;;;;;;;;;;;;;10.36;100.00;99820.81;7310962;19;19910;-64
2023/12/08 03:17:54;;;;;;;;;;;;;;;10.34;100.00;99809.66;7313288;19;22313;-65
2023/12/08 03:20:22;;;;;;;;;;;;;;;10.32;100.00;99815.06;7327419;19;19964;-65
2023/12/08 03:23:03;;;;;;;;;;;;;;;10.31;100.00;99823.16;7301178;19;19923;-65
2023/12/08 03:25:30;;;;;;;;;;;;;;;10.27;100.00;99822.66;7314975;19;19918;-65
2023/12/08 03:27:57;;;;;;;;;;;;;;;10.26;100.00;99815.78;7319861;19;20719;-65
2023/12/08 03:30:23;;;;;;;;;;;;;;;10.26;100.00;99818.41;7321482;19;19919;-65
2023/12/08 03:32:50;;;;;;;;;;;;;;;10.25;100.00;99820.25;7314384;19;19930;-64
2023/12/08 03:35:18;;;;;;;;;;;;;;;10.24;100.00;99815.16;7291017;19;19915;-65
2023/12/08 03:37:45;;;;;;;;;;;;;;;10.24;100.00;99823.03;7310323;19;22433;-65
2023/12/08 03:40:12;;;;;;;;;;;;;;;10.24;100.00;99826.47;7317065;19;19926;-65
2023/12/08 03:42:39;;;;;;;;;;;;;;;10.18;100.00;99824.56;7313390;19;20506;-64
2023/12/08 03:45:06;;;;;;;;;;;;;;;10.17;100.00;99819.47;7308522;19;19929;-64
2023/12/08 03:47:33;;;;;;;;;;;;;;;10.13;100.00;99815.53;7304440;19;19918;-63
2023/12/08 03:50:00;;;;;;;;;;;;;;;10.10;100.00;99815.88;7307078;19;19926;-64
2023/12/08 03:52:27;;;;;;;;;;;;;;;10.08;100.00;99823.94;7309162;19;20419;-64
2023/12/08 03:54:54;;;;;;;;;;;;;;;10.06;100.00;99823.28;7309444;19;20068;-65
2023/12/08 03:57:21;;;;;;;;;;;;;;;10.03;100.00;99822.81;7316115;19;20496;-64
2023/12/08 03:59:48;;;;;;;;;;;;;;;10.02;100.00;99813.28;7317326;19;20492;-65
2023/12/08 04:02:15;;;;;;;;;;;;;;;10.01;100.00;99824.78;7318676;19;20998;-65
2023/12/08 04:04:42;;;;;;;;;;;;;;;9.97;100.00;99826.13;7321665;19;19918;-66
2023/12/08 04:07:09;;;;;;;;;;;;;;;9.95;100.00;99826.31;7303826;19;19938;-64
2023/12/08 04:09:35;;;;;;;;;;;;;;;9.96;100.00;99822.69;7312407;19;19937;-63
2023/12/08 04:12:02;;;;;;;;;;;;;;;9.90;100.00;99823.41;7312138;19;19993;-64
2023/12/08 04:14:29;;;;;;;;;;;;;;;9.90;100.00;99833.09;7317883;19;20471;-64
2023/12/08 04:16:56;;;;;;;;;;;;;;;9.88;100.00;99831.44;7319252;19;19922;-64
2023/12/08 04:19:23;;;;;;;;;;;;;;;9.88;100.00;99836.72;7315186;19;19929;-64
2023/12/08 04:21:51;;;;;;;;;;;;;;;9.88;100.00;99828.00;7315913;19;20652;-65
2023/12/08 04:24:17;;;;;;;;;;;;;;;9.90;100.00;99830.47;7318072;19;19915;-65
2023/12/08 04:26:44;;;;;;;;;;;;;;;9.88;100.00;99833.25;7319058;19;20285;-65
2023/12/08 04:29:12;;;;;;;;;;;;;;;9.87;100.00;99831.63;7307787;19;19921;-64
2023/12/08 04:31:38;;;;;;;;;;;;;;;9.87;100.00;99828.97;7313341;19;20489;-66
2023/12/08 04:34:05;;;;;;;;;;;;;;;9.87;100.00;99831.63;7311530;19;19911;-66
2023/12/08 04:36:32;;;;;;;;;;;;;;;9.88;100.00;99839.34;7314153;19;19919;-66
2023/12/08 04:39:01;;;;;;;;;;;;;;;9.90;100.00;99838.34;7307324;19;19926;-65
2023/12/08 04:41:28;;;;;;;;;;;;;;;9.90;100.00;99848.84;7296038;19;21545;-66
2023/12/08 04:43:55;;;;;;;;;;;;;;;9.86;100.00;99843.94;7305714;19;19915;-64
2023/12/08 04:46:21;;;;;;;;;;;;;;;9.84;100.00;99848.56;7309810;19;20560;-66
2023/12/08 04:48:48;;;;;;;;;;;;;;;9.81;100.00;99843.63;7305424;19;19918;-64
2023/12/08 04:51:15;;;;;;;;;;;;;;;9.81;100.00;99842.81;7310911;19;19934;-64
2023/12/08 04:53:42;;;;;;;;;;;;;;;9.81;100.00;99854.13;7310163;19;19919;-64
2023/12/08 04:56:09;;;;;;;;;;;;;;;9.83;100.00;99859.22;7307647;19;19919;-64
2023/12/08 04:58:38;;;;;;;;;;;;;;;9.82;100.00;99861.03;7312562;19;20480;-65
2023/12/08 05:01:06;;;;;;;;;;;;;;;9.82;100.00;99861.03;7313382;19;19928;-64
2023/12/08 05:03:34;;;;;;;;;;;;;;;9.83;100.00;99860.03;7318711;19;20534;-64
2023/12/08 05:06:01;;;;;;;;;;;;;;;9.83;100.00;99867.94;7318835;19;20300;-65
2023/12/08 05:08:29;;;;;;;;;;;;;;;9.83;100.00;99873.19;7313599;19;20232;-66
2023/12/08 05:10:56;;;;;;;;;;;;;;;9.81;100.00;99866.44;7305154;19;21013;-65
2023/12/08 05:13:23;;;;;;;;;;;;;;;9.81;100.00;99879.59;7310873;19;20338;-64
2023/12/08 05:15:50;;;;;;;;;;;;;;;9.82;100.00;99882.03;7309994;19;19986;-65
2023/12/08 05:18:17;;;;;;;;;;;;;;;9.82;100.00;99883.84;7324146;19;19922;-64
2023/12/08 05:20:44;;;;;;;;;;;;;;;9.79;100.00;99874.53;7329952;19;20455;-65
2023/12/08 05:23:12;;;;;;;;;;;;;;;9.78;100.00;99872.88;7313680;19;20321;-66
2023/12/08 05:25:39;;;;;;;;;;;;;;;9.78;100.00;99882.56;7301041;19;19929;-65
2023/12/08 05:28:06;;;;;;;;;;;;;;;9.73;100.00;99872.56;7297253;19;20378;-64
2023/12/08 05:30:33;;;;;;;;;;;;;;;9.72;100.00;99881.44;7319206;19;19986;-65
2023/12/08 05:33:00;;;;;;;;;;;;;;;9.70;100.00;99885.25;7308938;19;20074;-65
2023/12/08 05:35:27;;;;;;;;;;;;;;;9.68;100.00;99877.53;7317098;19;19907;-65
2023/12/08 05:37:54;;;;;;;;;;;;;;;9.66;100.00;99871.59;7319782;19;20521;-65
2023/12/08 05:40:21;;;;;;;;;;;;;;;9.63;100.00;99874.59;7321545;19;19926;-68
2023/12/08 05:42:48;;;;;;;;;;;;;;;9.57;100.00;99883.13;7314871;19;19986;-66
2023/12/08 05:45:15;;;;;;;;;;;;;;;9.56;100.00;99891.19;7320503;19;20245;-66
2023/12/08 05:47:43;;;;;;;;;;;;;;;9.51;100.00;99890.88;7317006;19;19998;-65
2023/12/08 05:50:10;;;;;;;;;;;;;;;9.50;100.00;99892.66;7309452;19;19990;-66
2023/12/08 05:52:37;;;;;;;;;;;;;;;9.49;100.00;99892.84;7319238;19;19915;-64
2023/12/08 05:55:04;;;;;;;;;;;;;;;9.48;100.00;99902.53;7325211;19;19914;-64
2023/12/08 05:57:31;;;;;;;;;;;;;;;9.47;100.00;99906.16;7333281;19;19930;-64
2023/12/08 05:59:58;;;;;;;;;;;;;;;9.47;100.00;99907.94;7306260;19;19910;-67
2023/12/08 06:02:25;;;;;;;;;;;;;;;9.44;100.00;99904.69;7305414;19;19930;-66
2023/12/08 06:04:52;;;;;;;;;;;;;;;9.46;100.00;99922.88;7320928;19;20363;-66
2023/12/08 06:07:18;;;;;;;;;;;;;;;9.44;100.00;99920.44;7319624;19;19919;-67
2023/12/08 06:09:45;;;;;;;;;;;;;;;9.45;100.00;99923.88;7321532;19;20007;-67
2023/12/08 06:12:12;;;;;;;;;;;;;;;9.44;100.00;99917.81;7326366;19;19926;-65
2023/12/08 06:14:40;;;;;;;;;;;;;;;9.47;100.00;99921.06;7307666;19;19926;-65
2023/12/08 06:17:06;;;;;;;;;;;;;;;9.47;100.00;99928.97;7299939;19;19915;-66
2023/12/08 06:19:34;;;;;;;;;;;;;;;9.45;100.00;99926.50;7309540;19;20874;-66
2023/12/08 06:22:01;;;;;;;;;;;;;;;9.43;100.00;99924.06;7320506;19;19921;-65
2023/12/08 06:24:28;;;;;;;;;;;;;;;9.45;100.00;99929.13;7327539;19;20377;-66
2023/12/08 06:26:54;;;;;;;;;;;;;;;9.44;100.00;99930.94;7314790;19;20525;-64
2023/12/08 06:29:21;;;;;;;;;;;;;;;9.43;100.00;99931.94;7321211;19;19922;-66
2023/12/08 06:31:48;;;;;;;;;;;;;;;9.44;100.00;99938.00;7309482;19;20279;-66
2023/12/08 06:34:15;;;;;;;;;;;;;;;9.45;100.00;99937.81;7324391;19;20162;-65
2023/12/08 06:36:45;;;;;;;;;;;;;;;9.43;100.00;99950.31;7319810;19;22173;-65
2023/12/08 06:39:17;;;;;;;;;;;;;;;9.44;100.00;99951.13;7318132;19;21068;-65
2023/12/08 06:41:44;;;;;;;;;;;;;;;9.43;100.00;99946.84;7328236;19;19939;-65
2023/12/08 06:44:12;;;;;;;;;;;;;;;9.42;100.00;99955.72;7320740;19;19922;-66
2023/12/08 06:46:40;;;;;;;;;;;;;;;9.40;100.00;99957.69;7310726;19;19914;-65
2023/12/08 06:49:09;;;;;;;;;;;;;;;9.40;100.00;99948.00;7321941;19;19914;-65
2023/12/08 06:51:36;;;;;;;;;;;;;;;9.44;100.00;99959.00;7308063;19;19921;-65
2023/12/08 06:54:03;;;;;;;;;;;;;;;9.44;100.00;99954.56;7319175;19;20490;-65
2023/12/08 06:56:30;;;;;;;;;;;;;;;9.43;100.00;99954.72;7316274;19;19914;-65
2023/12/08 06:58:57;;;;;;;;;;;;;;;9.43;100.00;99959.97;7311056;19;20573;-66
2023/12/08 07:01:24;;;;;;;;;;;;;;;9.42;100.00;99961.78;7310973;19;19914;-66
2023/12/08 07:03:51;;;;;;;;;;;;;;;9.44;100.00;99959.81;7315884;19;20252;-64
2023/12/08 07:06:19;;;;;;;;;;;;;;;9.41;100.00;99969.81;7307702;19;19968;-66
2023/12/08 07:08:46;;;;;;;;;;;;;;;9.40;100.00;99962.94;7324007;19;19919;-65
2023/12/08 07:11:13;;;;;;;;;;;;;;;9.39;100.00;99964.75;7310528;19;20541;-67
2023/12/08 07:13:39;;;;;;;;;;;;;;;9.42;100.00;99963.59;7322023;19;19933;-66
2023/12/08 07:16:09;;;;;;;;;;;;;;;9.40;100.00;99963.75;7321679;19;19929;-64
2023/12/08 07:18:39;;;;;;;;;;;;;;;9.42;100.00;99977.53;7317849;19;19930;-65
2023/12/08 07:21:06;;;;;;;;;;;;;;;9.43;100.00;99963.44;7310892;19;20333;-66
2023/12/08 07:23:34;;;;;;;;;;;;;;;9.48;100.00;99967.34;7309470;19;19933;-64
2023/12/08 07:26:01;;;;;;;;;;;;;;;9.49;100.00;99979.50;7306117;19;20220;-65
2023/12/08 07:28:28;;;;;;;;;;;;;;;9.53;100.00;99965.06;7317401;19;19918;-66
2023/12/08 07:30:59;;;;;;;;;;;;;;;9.56;100.00;99956.81;7317317;19;19978;-65
2023/12/08 07:33:29;;;;;;;;;;;;;;;9.59;100.00;99959.97;7320023;19;19919;-65
2023/12/08 07:35:56;;;;;;;;;;;;;;;9.60;100.00;99956.31;7322244;19;19925;-65
2023/12/08 07:38:23;;;;;;;;;;;;;;;9.62;100.00;99954.34;7324008;19;19938;-66
2023/12/08 07:40:50;;;;;;;;;;;;;;;9.60;100.00;99945.81;7322047;19;19930;-65
2023/12/08 07:43:20;;;;;;;;;;;;;;;9.61;100.00;99959.78;7325212;19;20275;-64
2023/12/08 07:45:46;;;;;;;;;;;;;;;9.63;100.00;99961.25;7315330;19;19999;-66
2023/12/08 07:48:13;;;;;;;;;;;;;;;9.63;100.00;99974.38;7308307;19;19925;-66
2023/12/08 07:50:40;;;;;;;;;;;;;;;9.66;100.00;99974.03;7323416;19;20021;-64
2023/12/08 07:53:07;;;;;;;;;;;;;;;9.65;100.00;99982.09;7319333;19;19915;-65
2023/12/08 07:55:34;;;;;;;;;;;;;;;9.63;100.00;99978.81;7317455;19;19923;-68
2023/12/08 07:58:01;;;;;;;;;;;;;;;9.64;100.00;99981.28;7306953;19;20359;-66
2023/12/08 08:00:28;;;;;;;;;;;;;;;9.69;100.00;99992.09;7323268;19;19938;-65
2023/12/08 08:02:55;;;;;;;;;;;;;;;9.71;100.00;99992.75;7312131;19;20383;-66
2023/12/08 08:05:24;;;;;;;;;;;;;;;9.73;100.00;99997.84;7311470;19;19926;-65
2023/12/08 08:07:51;;;;;;;;;;;;;;;9.72;100.00;100004.06;7323950;19;19986;-66
2023/12/08 08:10:17;;;;;;;;;;;;;;;9.75;100.00;100001.13;7326740;19;20717;-65
2023/12/08 08:12:44;;;;;;;;;;;;;;;9.86;100.00;99998.94;7317858;19;19954;-64
2023/12/08 08:15:11;;;;;;;;;;;;;;;10.01;100.00;100000.84;7321525;19;20026;-64
2023/12/08 08:17:38;;;;;;;;;;;;;;;10.05;100.00;100000.38;7310770;19;20345;-66
2023/12/08 08:20:06;;;;;;;;;;;;;;;10.05;100.00;100000.38;7317596;19;20271;-65
2023/12/08 08:22:33;;;;;;;;;;;;;;;10.05;100.00;99992.50;7316158;19;20999;-65
2023/12/08 08:25:01;;;;;;;;;;;;;;;10.04;100.00;99988.22;7314121;19;19922;-65
2023/12/08 08:27:28;;;;;;;;;;;;;;;10.06;100.00;99990.66;7316496;19;20857;-64
2023/12/08 08:29:56;;;;;;;;;;;;;;;10.05;100.00;99986.41;7325747;19;19923;-64
2023/12/08 08:32:23;;;;;;;;;;;;;;;10.04;100.00;99987.41;7307690;19;21509;-65
2023/12/08 08:34:53;;;;;;;;;;;;;;;10.03;100.00;99993.63;7311148;19;20312;-65
2023/12/08 08:37:23;;;;;;;;;;;;;;;10.08;100.00;100000.03;7310932;19;20561;-65
2023/12/08 08:39:51;;;;;;;;;;;;;;;10.11;100.00;100001.47;7305313;19;20510;-64
2023/12/08 08:42:18;;;;;;;;;;;;;;;10.10;100.00;100005.94;7310519;19;20798;-65
2023/12/08 08:44:45;;;;;;;;;;;;;;;10.16;100.00;100009.69;7316075;19;20461;-66
2023/12/08 08:47:12;;;;;;;;;;;;;;;10.16;100.00;100004.44;7294542;19;19922;-64
2023/12/08 08:49:39;;;;;;;;;;;;;;;10.18;100.00;100007.72;7310816;19;19942;-64
2023/12/08 08:52:06;;;;;;;;;;;;;;;10.21;100.00;100015.25;7308672;19;19914;-64
2023/12/08 08:54:33;;;;;;;;;;;;;;;10.22;100.00;100011.66;7313341;19;19923;-66
2023/12/08 08:57:00;;;;;;;;;;;;;;;10.25;100.00;100021.84;7310589;19;20007;-67
2023/12/08 08:59:26;;;;;;;;;;;;;;;10.29;100.00;100015.25;7315457;19;20323;-66
2023/12/08 09:01:53;;;;;;;;;;;;;;;10.35;100.00;100021.63;7310066;19;20245;-66
2023/12/08 09:04:20;;;;;;;;;;;;;;;10.39;100.00;100036.91;7308556;19;19925;-66
2023/12/08 09:06:51;;;;;;;;;;;;;;;10.41;100.00;100034.09;7307630;19;20154;-67
2023/12/08 09:09:19;;;;;;;;;;;;;;;10.37;100.00;100036.22;7312637;19;19923;-66
2023/12/08 09:11:46;;;;;;;;;;;;;;;10.40;100.00;100035.91;7316683;19;19911;-67
2023/12/08 09:14:14;;;;;;;;;;;;;;;10.42;100.00;100018.13;7308392;19;20005;-66
2023/12/08 09:16:46;;;;;;;;;;;;;;;10.49;100.00;100034.06;7314766;19;22308;-65
2023/12/08 09:19:13;;;;;;;;;;;;;;;10.50;100.00;100033.06;7312927;19;19915;-66
2023/12/08 09:21:40;;;;;;;;;;;;;;;10.52;100.00;100029.25;7306906;19;21011;-66
2023/12/08 09:24:19;;;;;;;;;;;;;;;10.52;100.00;100028.44;7307887;19;19926;-66
2023/12/08 09:26:46;;;;;;;;;;;;;;;10.58;100.00;100023.31;7313667;19;19929;-66
2023/12/08 09:29:13;;;;;;;;;;;;;;;10.62;100.00;100021.16;7320192;19;20141;-66
2023/12/08 09:31:40;;;;;;;;;;;;;;;10.66;100.00;100028.56;7329422;19;19931;-65
2023/12/08 09:34:07;;;;;;;;;;;;;;;10.65;100.00;100026.91;7313369;19;20032;-66
2023/12/08 09:36:34;;;;;;;;;;;;;;;10.63;100.00;100021.00;7311624;19;19923;-65
2023/12/08 09:39:00;;;;;;;;;;;;;;;10.62;100.00;100026.41;7305403;19;21226;-66
2023/12/08 09:41:30;;;;;;;;;;;;;;;10.60;100.00;100023.97;7323303;19;20466;-65
2023/12/08 09:44:02;;;;;;;;;;;;;;;10.63;100.00;100039.41;7324018;19;19918;-67
2023/12/08 09:46:30;;;;;;;;;;;;;;;10.67;100.00;100039.88;7314754;19;20082;-66
2023/12/08 09:49:00;;;;;;;;;;;;;;;10.69;100.00;100037.88;7312221;19;19919;-65
2023/12/08 09:51:28;;;;;;;;;;;;;;;10.75;100.00;100036.38;7315798;19;19927;-66
2023/12/08 09:53:55;;;;;;;;;;;;;;;10.83;100.00;100045.03;7309744;19;20486;-66
2023/12/08 09:56:23;;;;;;;;;;;;;;;10.87;100.00;100056.06;7311508;19;19923;-67
2023/12/08 09:58:51;;;;;;;;;;;;;;;10.88;100.00;100053.22;7310851;19;20111;-65
2023/12/08 10:01:18;;;;;;;;;;;;;;;10.96;100.00;100050.56;7308701;19;19926;-66
2023/12/08 10:03:45;;;;;;;;;;;;;;;10.93;100.00;100050.91;7307964;19;19923;-65
2023/12/08 10:06:13;;;;;;;;;;;;;;;11.00;100.00;100043.13;7304359;19;19923;-67
2023/12/08 10:08:40;;;;;;;;;;;;;;;11.02;100.00;100044.59;7309166;19;20295;-65
2023/12/08 10:11:08;;;;;;;;;;;;;;;11.08;100.00;100053.59;7302951;19;19922;-67
2023/12/08 10:13:35;;;;;;;;;;;;;;;11.20;100.00;100054.00;7326427;19;20356;-66
2023/12/08 10:16:02;;;;;;;;;;;;;;;11.25;100.00;100049.03;7321583;19;19922;-65
2023/12/08 10:18:29;;;;;;;;;;;;;;;11.27;100.00;100049.69;7323352;19;20486;-65
2023/12/08 10:21:16;;;;;;;;;;;;;;;11.30;100.00;100058.06;7318114;19;20295;-65
2023/12/08 10:23:43;;;;;;;;;;;;;;;11.46;100.00;100057.09;7316749;19;19919;-65
2023/12/08 10:26:12;;;;;;;;;;;;;;;11.53;100.00;100064.09;7321845;19;19911;-66
2023/12/08 10:28:39;;;;;;;;;;;;;;;11.55;100.00;100058.66;7324168;19;20569;-66
2023/12/08 10:31:07;;;;;;;;;;;;;;;11.57;100.00;100048.78;7327594;19;19935;-65
2023/12/08 10:33:36;;;;;;;;;;;;;;;11.59;100.00;100060.75;7322030;19;19922;-67
2023/12/08 10:36:04;;;;;;;;;;;;;;;11.64;100.00;100046.22;7313809;19;19941;-67
2023/12/08 10:38:32;;;;;;;;;;;;;;;11.67;100.00;100048.53;7320827;19;19918;-66
2023/12/08 10:41:00;;;;;;;;;;;;;;;11.72;100.00;100061.97;7319187;19;19933;-65
2023/12/08 10:43:30;;;;;;;;;;;;;;;11.71;99.81;100069.06;7302908;19;22237;-66
2023/12/08 10:45:57;;;;;;;;;;;;;;;11.78;100.00;100070.03;7322260;19;20005;-66
2023/12/08 10:48:24;;;;;;;;;;;;;;;11.79;100.00;100068.19;7320567;19;19925;-67
2023/12/08 10:51:01;;;;;;;;;;;;;;;11.85;99.83;100068.28;7323467;19;20182;-64
2023/12/08 10:53:28;;;;;;;;;;;;;;;11.89;99.92;100072.19;7321846;19;20003;-66
2023/12/08 10:56:06;;;;;;;;;;;;;;;11.96;99.48;100075.75;7312121;19;20622;-64
2023/12/08 10:58:39;;;;;;;;;;;;;;;12.06;98.86;100085.22;7314626;19;19989;-66
2023/12/08 11:01:12;;;;;;;;;;;;;;;12.05;98.21;100078.31;7315594;19;19930;-65
2023/12/08 11:03:40;;;;;;;;;;;;;;;12.11;99.01;100075.78;7310553;19;19918;-65
2023/12/08 11:06:14;;;;;;;;;;;;;;;12.13;97.90;100086.97;7314806;19;19919;-64
2023/12/08 11:08:45;;;;;;;;;;;;;;;12.18;97.88;100078.50;7316871;19;19929;-65
2023/12/08 11:11:12;;;;;;;;;;;;;;;12.24;97.49;100080.44;7322675;19;19921;-66
2023/12/08 11:13:47;;;;;;;;;;;;;;;12.27;96.88;100083.50;7309876;19;20005;-66
2023/12/08 11:16:29;;;;;;;;;;;;;;;12.27;96.59;100080.88;7323655;19;20605;-64
2023/12/08 11:18:58;;;;;;;;;;;;;;;12.33;96.37;100081.97;7321417;19;19919;-66
2023/12/08 11:21:26;;;;;;;;;;;;;;;12.35;96.58;100075.50;7320987;19;20329;-67
2023/12/08 11:23:54;;;;;;;;;;;;;;;12.38;96.66;100079.59;7320380;19;20400;-68
2023/12/08 11:26:39;;;;;;;;;;;;;;;12.37;96.76;100077.97;7302822;19;20384;-64
2023/12/08 11:29:15;;;;;;;;;;;;;;;12.36;96.29;100084.22;7319680;19;19929;-66
2023/12/08 11:31:47;;;;;;;;;;;;;;;12.39;96.03;100081.25;7326467;19;19919;-67
2023/12/08 11:34:17;;;;;;;;;;;;;;;12.40;95.41;100075.75;7316411;19;19926;-66
2023/12/08 11:36:46;;;;;;;;;;;;;;;12.37;94.95;100080.59;7303325;19;19923;-65
2023/12/08 11:39:35;;;;;;;;;;;;;;;12.38;95.32;100082.25;7313484;19;19923;-66
2023/12/08 11:42:02;;;;;;;;;;;;;;;12.40;95.36;100088.94;7327196;19;19940;-65
2023/12/08 11:44:33;;;;;;;;;;;;;;;12.42;95.22;100083.50;7316148;19;20302;-66
2023/12/08 11:47:00;;;;;;;;;;;;;;;12.45;94.88;100085.75;7318523;19;19991;-64
2023/12/08 11:49:27;;;;;;;;;;;;;;;12.49;94.47;100084.41;7321170;19;19987;-66
2023/12/08 11:52:09;;;;;;;;;;;;;;;12.46;94.28;100078.66;7310621;19;19938;-65
2023/12/08 11:54:55;;;;;;;;;;;;;;;12.50;94.67;100078.13;7310052;19;19926;-67
2023/12/08 11:57:36;;;;;;;;;;;;;;;12.56;95.17;100080.03;7316805;19;19980;-67
2023/12/08 12:00:06;;;;;;;;;;;;;;;12.58;95.56;100085.94;7310782;19;20855;-65
2023/12/08 12:02:34;;;;;;;;;;;;;;;12.60;95.18;100086.56;7317583;19;19922;-65
2023/12/08 12:05:00;;;;;;;;;;;;;;;12.66;95.89;100090.28;7320236;19;19986;-65
2023/12/08 12:07:28;;;;;;;;;;;;;;;12.68;94.96;100088.28;7313913;19;19922;-67
2023/12/08 12:09:55;;;;;;;;;;;;;;;12.66;93.86;100093.75;7314191;19;20038;-66
2023/12/08 12:12:24;;;;;;;;;;;;;;;12.69;93.16;100089.94;7316487;19;20384;-66
2023/12/08 12:14:54;;;;;;;;;;;;;;;12.78;94.64;100097.56;7310393;19;19919;-66
2023/12/08 12:17:24;;;;;;;;;;;;;;;12.81;93.73;100076.06;7319352;19;19927;-64
2023/12/08 12:19:55;;;;;;;;;;;;;;;12.85;93.16;100085.25;7306374;19;19926;-65
2023/12/08 12:22:25;;;;;;;;;;;;;;;12.93;93.85;100094.06;7315848;19;19930;-66
2023/12/08 12:27:54;;;;;;;;;;;;;;;12.98;92.65;100087.22;7310836;19;19929;-67
2023/12/08 12:30:22;;;;;;;;;;;;;;;12.98;92.37;100081.94;7319733;19;19922;-65
2023/12/08 12:32:49;;;;;;;;;;;;;;;13.01;92.41;100088.66;7318475;19;19911;-66
2023/12/08 12:35:17;;;;;;;;;;;;;;;13.06;91.30;100084.47;7310999;19;19914;-66
2023/12/08 12:37:44;;;;;;;;;;;;;;;13.11;91.44;100089.16;7326431;19;19919;-67
2023/12/08 12:40:11;;;;;;;;;;;;;;;13.13;91.90;100088.03;7302213;19;20244;-66
2023/12/08 12:42:45;;;;;;;;;;;;;;;13.17;90.53;100093.75;7321480;19;19935;-67
2023/12/08 12:45:27;;;;;;;;;;;;;;;13.13;89.47;100081.94;7324491;19;19947;-66